Time;durP1;ratioP1;P1;durP2;ratioP2;P2;SDS_P1;SDS_P2;PMS_P1;PMS_P2;Temp;Humidity;BMP_temperature;BMP_pressure;BME280_temperature;BME280_humidity;BME280_pressure;Samples;Min_cycle;Max_cycle;Signal;HPM_P1;HPM_P2
2022/03/08 00:01:03;;;;;;;20.10;9.30;;;;;-0.20;97439.40;;;;110751;1250;41130;-63
2022/03/08 00:03:34;;;;;;;20.20;9.50;;;;;-0.18;97443.20;;;;110856;1251;41730;-63
2022/03/08 00:06:04;;;;;;;25.40;9.30;;;;;-0.10;97445.40;;;;110872;1249;41388;-63
2022/03/08 00:08:34;;;;;;;19.40;9.60;;;;;-0.10;97445.40;;;;110508;1251;41608;-63
2022/03/08 00:11:04;;;;;;;18.80;9.50;;;;;-0.06;97444.60;;;;110741;1250;41491;-62
2022/03/08 00:13:33;;;;;;;20.10;9.50;;;;;0.00;97444.80;;;;110592;1250;42253;-63
2022/03/08 00:16:04;;;;;;;20.60;9.40;;;;;0.00;97445.20;;;;111026;1247;41146;-62
2022/03/08 00:18:35;;;;;;;18.90;9.30;;;;;0.00;97447.60;;;;110828;1248;41598;-64
2022/03/08 00:21:05;;;;;;;22.20;10.60;;;;;0.00;97446.40;;;;110651;1248;41266;-63
2022/03/08 00:23:36;;;;;;;21.30;10.20;;;;;-0.10;97448.40;;;;110837;1250;41510;-64
2022/03/08 00:26:06;;;;;;;21.80;10.60;;;;;-0.10;97444.60;;;;110531;1250;41408;-64
2022/03/08 00:28:54;;;;;;;21.00;9.70;;;;;-0.10;97446.80;;;;110655;1250;41322;-63
2022/03/08 00:31:41;;;;;;;23.40;11.20;;;;;-0.20;97448.00;;;;110656;1250;41204;-63
2022/03/08 00:34:10;;;;;;;24.10;10.50;;;;;-0.20;97445.40;;;;110772;1250;41433;-63
2022/03/08 00:36:40;;;;;;;25.00;12.20;;;;;-0.30;97446.00;;;;110582;1252;42408;-62
2022/03/08 00:39:10;;;;;;;25.10;13.10;;;;;-0.58;97448.40;;;;110422;1251;41167;-62
2022/03/08 00:41:41;;;;;;;26.70;14.30;;;;;-0.70;97449.80;;;;110641;1252;42323;-63
2022/03/08 00:44:11;;;;;;;26.60;13.50;;;;;-0.90;97443.60;;;;110612;1252;41938;-61
2022/03/08 00:46:42;;;;;;;29.50;14.90;;;;;-1.00;97439.60;;;;110910;1249;41631;-63
2022/03/08 00:49:12;;;;;;;26.80;13.50;;;;;-1.24;97445.40;;;;111012;1250;41931;-64
2022/03/08 00:51:42;;;;;;;27.20;14.20;;;;;-1.20;97437.40;;;;110816;1250;41271;-63
2022/03/08 00:54:12;;;;;;;27.40;14.20;;;;;-1.30;97435.80;;;;110993;1250;41273;-62
2022/03/08 00:56:42;;;;;;;28.80;13.90;;;;;-1.36;97437.00;;;;110783;1250;41249;-65
2022/03/08 00:59:14;;;;;;;26.20;14.10;;;;;-1.40;97440.40;;;;110822;1250;41415;-63
2022/03/08 01:01:44;;;;;;;28.50;13.90;;;;;-1.44;97442.80;;;;110542;1250;42569;-63
2022/03/08 01:04:15;;;;;;;30.60;15.70;;;;;-1.50;97441.20;;;;110692;1250;42671;-63
2022/03/08 01:06:44;;;;;;;27.20;14.20;;;;;-1.60;97439.60;;;;110771;1250;41238;-62
2022/03/08 01:09:15;;;;;;;32.80;16.30;;;;;-1.70;97440.40;;;;110799;1251;41287;-63
2022/03/08 01:11:45;;;;;;;33.20;17.00;;;;;-1.76;97438.20;;;;110791;1250;41652;-63
2022/03/08 01:14:15;;;;;;;30.60;14.90;;;;;-1.80;97438.60;;;;110632;1252;41411;-63
2022/03/08 01:16:45;;;;;;;27.40;13.20;;;;;-1.70;97442.60;;;;110592;1250;41269;-63
2022/03/08 01:19:17;;;;;;;26.00;12.50;;;;;-1.70;97442.80;;;;110645;1250;41264;-63
2022/03/08 01:21:47;;;;;;;26.00;12.40;;;;;-1.70;97440.00;;;;110745;1250;41268;-62
2022/03/08 01:24:17;;;;;;;29.00;13.90;;;;;-1.70;97439.80;;;;110701;1249;41200;-65
2022/03/08 01:26:47;;;;;;;24.80;12.50;;;;;-1.70;97442.40;;;;110816;1250;41710;-63
2022/03/08 01:29:18;;;;;;;24.50;11.80;;;;;-1.74;97444.40;;;;110863;1250;41621;-62
2022/03/08 01:31:48;;;;;;;26.60;13.40;;;;;-1.70;97444.20;;;;110777;1250;42230;-62
2022/03/08 01:34:19;;;;;;;23.50;12.10;;;;;-1.70;97449.20;;;;110732;1250;41372;-62
2022/03/08 01:36:49;;;;;;;23.60;11.10;;;;;-1.70;97447.60;;;;110954;1250;41564;-63
2022/03/08 01:39:20;;;;;;;26.50;11.40;;;;;-1.70;97441.00;;;;110854;1250;41151;-60
2022/03/08 01:41:52;;;;;;;27.20;12.40;;;;;-1.70;97440.20;;;;110773;1250;41158;-62
2022/03/08 01:44:22;;;;;;;29.00;12.50;;;;;-1.60;97444.80;;;;110666;1252;41661;-62
2022/03/08 01:46:53;;;;;;;26.70;12.60;;;;;-1.60;97444.40;;;;110770;1250;41147;-63
2022/03/08 01:49:23;;;;;;;26.30;13.20;;;;;-1.60;97442.60;;;;110673;1252;41271;-63
2022/03/08 01:51:54;;;;;;;25.90;12.50;;;;;-1.60;97444.40;;;;110822;1250;41145;-62
2022/03/08 01:54:23;;;;;;;;;;;;;-1.58;97445.00;;;;110740;1248;41466;-62
2022/03/08 01:56:54;;;;;;;30.60;12.90;;;;;-1.54;97445.60;;;;110777;1250;42261;-64
2022/03/08 01:59:24;;;;;;;24.90;12.60;;;;;-1.50;97442.80;;;;110514;1252;41923;-63
2022/03/08 02:01:54;;;;;;;28.80;13.10;;;;;-1.50;97440.80;;;;110940;1249;41254;-64
2022/03/08 02:04:25;;;;;;;25.70;13.30;;;;;-1.50;97442.40;;;;110926;1250;41550;-62
2022/03/08 02:06:56;;;;;;;26.10;12.40;;;;;-1.50;97443.80;;;;110821;1250;41898;-63
2022/03/08 02:09:27;;;;;;;21.90;11.70;;;;;-1.50;97443.80;;;;110968;1250;41143;-63
2022/03/08 02:11:57;;;;;;;24.20;12.30;;;;;-1.50;97441.60;;;;110800;1250;41429;-63
2022/03/08 02:14:28;;;;;;;22.80;11.10;;;;;-1.42;97445.80;;;;110908;1249;41589;-62
2022/03/08 02:16:57;;;;;;;25.20;12.70;;;;;-1.40;97444.60;;;;110826;1250;41262;-61
2022/03/08 02:19:28;;;;;;;23.30;10.80;;;;;-1.40;97445.80;;;;110514;1252;41162;-63
2022/03/08 02:21:57;;;;;;;23.20;11.70;;;;;-1.40;97448.80;;;;110684;1251;41251;-63
2022/03/08 02:24:27;;;;;;;25.80;12.10;;;;;-1.40;97446.80;;;;110651;1250;41162;-63
2022/03/08 02:26:59;;;;;;;28.00;13.70;;;;;-1.40;97441.40;;;;110801;1250;41585;-64
2022/03/08 02:29:28;;;;;;;28.20;13.70;;;;;-1.40;97442.80;;;;110618;1251;41584;-62
2022/03/08 02:31:58;;;;;;;30.10;14.40;;;;;-1.42;97445.00;;;;110924;1250;41786;-61
2022/03/08 02:34:28;;;;;;;28.80;14.50;;;;;-1.50;97443.80;;;;110834;1251;42831;-64
2022/03/08 02:37:07;;;;;;;28.40;13.60;;;;;-1.58;97445.20;;;;110798;1250;41249;-63
2022/03/08 02:39:39;;;;;;;26.70;12.60;;;;;-1.60;97449.80;;;;110575;1252;41774;-62
2022/03/08 02:42:11;;;;;;;25.60;12.60;;;;;-1.60;97446.00;;;;110598;1251;41634;-61
2022/03/08 02:44:41;;;;;;;22.90;11.80;;;;;-1.60;97451.00;;;;109869;1252;690262;-60
2022/03/08 02:47:10;;;;;;;24.90;11.80;;;;;-1.50;97454.40;;;;110808;1251;41156;-63
2022/03/08 02:49:41;;;;;;;21.30;11.40;;;;;-1.50;97457.20;;;;110820;1250;41142;-64
2022/03/08 02:52:11;;;;;;;22.50;11.40;;;;;-1.46;97456.20;;;;110665;1251;41015;-62
2022/03/08 02:54:41;;;;;;;27.40;12.30;;;;;-1.40;97453.80;;;;110658;1250;41188;-62
2022/03/08 02:57:12;;;;;;;25.10;11.60;;;;;-1.38;97456.20;;;;110624;1250;41254;-63
2022/03/08 02:59:44;;;;;;;23.60;11.60;;;;;-1.30;97453.40;;;;110902;1250;41179;-62
2022/03/08 03:02:14;;;;;;;23.40;11.50;;;;;-1.30;97451.40;;;;110781;1250;41447;-62
2022/03/08 03:04:45;;;;;;;25.30;12.10;;;;;-1.20;97457.40;;;;110961;1250;41570;-63
2022/03/08 03:07:15;;;;;;;21.80;12.00;;;;;-1.18;97454.80;;;;110821;1250;41152;-62
2022/03/08 03:09:46;;;;;;;26.20;12.80;;;;;-1.10;97452.00;;;;110933;1250;42160;-63
2022/03/08 03:12:16;;;;;;;23.80;11.20;;;;;-1.10;97452.80;;;;110819;1250;41442;-64
2022/03/08 03:14:46;;;;;;;24.30;12.60;;;;;-1.10;97453.60;;;;110976;1250;41688;-64
2022/03/08 03:17:17;;;;;;;23.70;12.60;;;;;-1.04;97453.40;;;;110979;1250;41156;-62
2022/03/08 03:19:47;;;;;;;26.50;12.70;;;;;-1.00;97458.60;;;;110880;1249;41303;-63
2022/03/08 03:22:17;;;;;;;23.60;12.00;;;;;-1.00;97466.60;;;;110630;1250;41152;-62
2022/03/08 03:24:47;;;;;;;22.70;11.50;;;;;-1.00;97460.00;;;;110732;1249;42372;-62
2022/03/08 03:27:18;;;;;;;22.50;11.00;;;;;-1.00;97462.00;;;;110548;1251;41972;-60
2022/03/08 03:29:49;;;;;;;26.90;12.00;;;;;-1.00;97468.80;;;;110661;1250;41731;-61
2022/03/08 03:32:20;;;;;;;26.00;12.40;;;;;-1.00;97469.20;;;;110875;1250;42309;-63
2022/03/08 03:34:51;;;;;;;24.40;11.60;;;;;-1.00;97472.60;;;;110830;1250;41152;-62
2022/03/08 03:37:23;;;;;;;22.40;11.50;;;;;-1.00;97469.20;;;;110759;1250;41257;-63
2022/03/08 03:39:53;;;;;;;24.80;11.30;;;;;-1.00;97473.40;;;;110971;1250;41139;-61
2022/03/08 03:42:24;;;;;;;27.20;13.00;;;;;-1.00;97470.00;;;;110633;1251;42902;-60
2022/03/08 03:44:54;;;;;;;26.50;12.50;;;;;-1.00;97469.60;;;;110830;1250;41613;-62
2022/03/08 03:47:24;;;;;;;23.80;11.60;;;;;-1.00;97475.80;;;;110794;1251;41601;-63
2022/03/08 03:49:54;;;;;;;23.10;11.50;;;;;-1.00;97482.20;;;;111008;1250;42964;-65
2022/03/08 03:52:24;;;;;;;27.60;12.00;;;;;-1.00;97479.40;;;;110981;1250;41168;-62
2022/03/08 03:54:54;;;;;;;26.30;12.10;;;;;-1.04;97480.20;;;;110759;1251;41590;-60
2022/03/08 03:57:24;;;;;;;27.90;12.40;;;;;-1.06;97479.20;;;;110621;1250;42131;-64
2022/03/08 03:59:55;;;;;;;23.80;12.60;;;;;-1.10;97482.00;;;;110635;1252;41273;-63
2022/03/08 04:02:26;;;;;;;25.40;12.50;;;;;-1.10;97488.00;;;;110806;1250;41133;-62
2022/03/08 04:04:56;;;;;;;27.00;12.80;;;;;-1.20;97485.00;;;;110781;1250;41243;-62
2022/03/08 04:07:25;;;;;;;24.10;11.60;;;;;-1.20;97493.00;;;;110917;1250;41137;-63
2022/03/08 04:09:55;;;;;;;26.00;12.10;;;;;-1.20;97492.20;;;;110834;1251;41187;-62
2022/03/08 04:12:25;;;;;;;24.10;10.90;;;;;-1.20;97490.20;;;;110579;1251;41257;-63
2022/03/08 04:14:54;;;;;;;23.20;10.90;;;;;-1.20;97490.40;;;;110751;1250;41149;-63
2022/03/08 04:17:24;;;;;;;24.90;11.80;;;;;-1.20;97488.00;;;;110908;1250;41353;-63
2022/03/08 04:19:54;;;;;;;23.80;11.50;;;;;-1.20;97484.00;;;;110986;1247;41149;-64
2022/03/08 04:22:24;;;;;;;22.10;11.60;;;;;-1.16;97490.40;;;;110737;1248;41519;-63
2022/03/08 04:24:58;;;;;;;26.70;12.40;;;;;-1.20;97491.00;;;;111041;1247;41145;-63
2022/03/08 04:27:28;;;;;;;22.10;11.60;;;;;-1.20;97490.00;;;;110882;1250;41600;-62
2022/03/08 04:29:58;;;;;;;25.60;12.20;;;;;-1.30;97489.80;;;;110647;1251;42045;-62
2022/03/08 04:32:27;;;;;;;23.30;11.90;;;;;-1.30;97486.00;;;;110753;1250;41196;-62
2022/03/08 04:34:58;;;;;;;27.30;12.40;;;;;-1.30;97492.20;;;;110828;1250;41501;-62
2022/03/08 04:37:27;;;;;;;24.60;12.00;;;;;-1.30;97489.80;;;;110744;1250;41153;-63
2022/03/08 04:39:57;;;;;;;26.60;11.90;;;;;-1.30;97493.00;;;;110724;1252;41276;-62
2022/03/08 04:42:27;;;;;;;26.70;12.50;;;;;-1.30;97490.40;;;;110819;1250;41364;-63
2022/03/08 04:44:56;;;;;;;26.20;12.80;;;;;-1.26;97497.80;;;;110525;1251;41153;-63
2022/03/08 04:47:26;;;;;;;25.90;13.20;;;;;-1.20;97501.80;;;;110835;1250;42458;-63
2022/03/08 04:49:56;;;;;;;25.60;12.70;;;;;-1.20;97501.60;;;;110780;1250;41258;-61
2022/03/08 04:52:26;;;;;;;24.70;11.90;;;;;-1.20;97506.20;;;;110945;1250;41151;-63
2022/03/08 04:54:55;;;;;;;23.90;11.60;;;;;-1.20;97504.00;;;;110783;1250;40886;-63
2022/03/08 04:57:25;;;;;;;21.60;11.10;;;;;-1.20;97505.60;;;;110591;1252;41163;-63
2022/03/08 04:59:55;;;;;;;28.40;12.60;;;;;-1.20;97509.00;;;;110886;1250;40733;-62
2022/03/08 05:02:25;;;;;;;23.70;11.80;;;;;-1.20;97503.80;;;;110620;1251;41320;-62
2022/03/08 05:04:54;;;;;;;24.50;12.90;;;;;-1.12;97507.60;;;;110769;1250;41146;-62
2022/03/08 05:07:24;;;;;;;26.20;12.70;;;;;-1.10;97508.60;;;;110759;1250;41569;-62
2022/03/08 05:09:53;;;;;;;24.20;12.20;;;;;-1.10;97505.00;;;;110805;1250;41147;-62
2022/03/08 05:12:23;;;;;;;26.60;12.90;;;;;-1.10;97504.40;;;;110534;1250;41167;-63
2022/03/08 05:14:52;;;;;;;25.60;12.40;;;;;-1.10;97506.40;;;;110778;1250;41660;-62
2022/03/08 05:17:21;;;;;;;25.80;13.00;;;;;-1.10;97510.00;;;;110720;1250;41201;-62
2022/03/08 05:19:51;;;;;;;26.60;12.70;;;;;-1.06;97500.60;;;;110718;1250;41263;-62
2022/03/08 05:22:20;;;;;;;26.00;12.10;;;;;-1.00;97506.60;;;;110849;1250;41484;-63
2022/03/08 05:24:50;;;;;;;25.60;11.90;;;;;-1.00;97503.00;;;;110702;1250;41152;-62
2022/03/08 05:27:21;;;;;;;27.00;13.00;;;;;-1.00;97502.40;;;;110848;1250;41245;-62
2022/03/08 05:29:59;;;;;;;24.50;11.50;;;;;-1.00;97509.20;;;;110856;1251;41290;-62
2022/03/08 05:32:36;;;;;;;26.20;12.90;;;;;-0.90;97512.60;;;;110853;1250;41150;-63
2022/03/08 05:35:06;;;;;;;23.80;11.40;;;;;-0.90;97512.80;;;;110924;1250;41152;-62
2022/03/08 05:37:36;;;;;;;24.40;11.90;;;;;-0.90;97507.60;;;;110820;1251;41902;-62
2022/03/08 05:40:07;;;;;;;24.70;11.70;;;;;-0.88;97508.20;;;;110826;1250;41263;-62
2022/03/08 05:42:38;;;;;;;27.00;12.80;;;;;-0.90;97513.80;;;;110789;1250;41155;-62
2022/03/08 05:45:09;;;;;;;22.40;10.60;;;;;-0.90;97513.60;;;;110911;1249;41299;-61
2022/03/08 05:47:39;;;;;;;23.00;11.80;;;;;-0.86;97509.20;;;;110801;1250;41638;-62
2022/03/08 05:50:10;;;;;;;27.40;13.50;;;;;-0.88;97516.80;;;;110739;1250;41136;-63
2022/03/08 05:52:40;;;;;;;29.50;13.80;;;;;-0.90;97508.20;;;;110815;1251;41184;-60
2022/03/08 05:55:10;;;;;;;28.80;14.50;;;;;-0.80;97509.20;;;;110816;1250;41259;-62
2022/03/08 05:57:40;;;;;;;31.30;14.10;;;;;-0.84;97510.80;;;;110837;1250;41619;-61
2022/03/08 06:00:11;;;;;;;28.30;14.80;;;;;-0.90;97508.00;;;;110798;1251;41456;-62
2022/03/08 06:02:41;;;;;;;28.30;14.10;;;;;-0.90;97502.00;;;;110654;1252;41165;-62
2022/03/08 06:05:11;;;;;;;32.90;14.80;;;;;-1.00;97497.60;;;;110853;1250;41153;-62
2022/03/08 06:07:41;;;;;;;29.70;15.70;;;;;-1.10;97495.40;;;;110831;1250;41186;-63
2022/03/08 06:10:10;;;;;;;34.70;17.80;;;;;-1.08;97497.00;;;;110786;1250;41721;-62
2022/03/08 06:12:41;;;;;;;33.00;15.30;;;;;-1.10;97493.20;;;;110739;1250;41198;-62
2022/03/08 06:15:11;;;;;;;29.00;13.30;;;;;-1.00;97507.80;;;;110771;1250;41619;-63
2022/03/08 06:17:40;;;;;;;25.00;12.20;;;;;-0.90;97508.40;;;;110815;1250;41850;-62
2022/03/08 06:20:10;;;;;;;23.70;12.00;;;;;-0.70;97510.20;;;;110807;1250;41613;-62
2022/03/08 06:22:39;;;;;;;24.10;11.00;;;;;-0.58;97515.40;;;;110828;1250;41739;-63
2022/03/08 06:25:10;;;;;;;26.10;12.80;;;;;-0.40;97520.80;;;;110737;1251;41146;-63
2022/03/08 06:27:40;;;;;;;28.50;13.20;;;;;-0.34;97516.20;;;;110903;1250;41995;-63
2022/03/08 06:30:15;;;;;;;25.30;11.80;;;;;-0.30;97523.40;;;;110678;1250;41601;-63
2022/03/08 06:32:49;;;;;;;27.70;12.90;;;;;-0.10;97528.00;;;;110802;1251;42496;-62
2022/03/08 06:35:29;;;;;;;27.00;12.70;;;;;0.10;97527.20;;;;110902;1250;41892;-62
2022/03/08 06:37:59;;;;;;;28.90;14.60;;;;;0.20;97516.40;;;;110883;1250;41177;-64
2022/03/08 06:40:29;;;;;;;31.50;16.30;;;;;0.30;97506.40;;;;110608;1250;41214;-64
2022/03/08 06:43:02;;;;;;;26.10;13.80;;;;;0.20;97502.20;;;;110728;1250;41274;-63
2022/03/08 06:45:31;;;;;;;23.90;12.40;;;;;0.24;97519.60;;;;110916;1250;41144;-63
2022/03/08 06:48:00;;;;;;;27.60;14.50;;;;;0.30;97545.00;;;;110826;1250;42041;-61
2022/03/08 06:50:30;;;;;;;28.90;14.30;;;;;0.40;97557.20;;;;110600;1251;42205;-63
2022/03/08 06:53:00;;;;;;;28.00;14.90;;;;;0.42;97569.20;;;;110973;1250;40739;-64
2022/03/08 06:55:37;;;;;;;27.20;13.10;;;;;0.30;97574.40;;;;110962;1250;41368;-64
2022/03/08 06:58:10;;;;;;;23.20;12.00;;;;;0.40;97567.20;;;;110744;1250;41245;-63
2022/03/08 07:00:39;;;;;;;33.70;18.10;;;;;0.56;97559.40;;;;110762;1250;42368;-64
2022/03/08 07:03:09;;;;;;;37.10;19.00;;;;;0.50;97566.00;;;;110855;1250;41927;-64
2022/03/08 07:05:51;;;;;;;38.80;17.80;;;;;0.44;97565.60;;;;110772;1250;41630;-64
2022/03/08 07:08:20;;;;;;;31.60;14.70;;;;;0.50;97568.00;;;;110835;1250;41178;-64
2022/03/08 07:10:50;;;;;;;26.50;13.90;;;;;0.60;97557.60;;;;110838;1250;41259;-64
2022/03/08 07:13:19;;;;;;;39.60;18.50;;;;;0.70;97567.20;;;;110687;1250;41262;-63
2022/03/08 07:15:49;;;;;;;31.90;16.20;;;;;0.60;97583.80;;;;110780;1250;41376;-63
2022/03/08 07:18:18;;;;;;;29.40;14.60;;;;;0.64;97587.40;;;;110624;1250;41155;-64
2022/03/08 07:20:49;;;;;;;27.20;13.40;;;;;0.70;97579.40;;;;110791;1250;41275;-64
2022/03/08 07:23:22;;;;;;;24.90;12.60;;;;;0.82;97574.80;;;;110723;1249;41485;-63
2022/03/08 07:25:51;;;;;;;26.90;14.10;;;;;0.98;97588.20;;;;110734;1250;41154;-62
2022/03/08 16:28:15;;;;;;;10.00;4.10;;;;;3.44;97447.80;;;;110934;1251;41135;-68
2022/03/08 16:30:46;;;;;;;10.50;4.20;;;;;3.50;97444.60;;;;110806;1251;42661;-64
2022/03/08 16:33:17;;;;;;;10.00;3.70;;;;;3.50;97447.20;;;;110940;1249;41615;-69
2022/03/08 16:35:46;;;;;;;9.10;3.50;;;;;3.50;97450.80;;;;110968;1250;41153;-67
2022/03/08 16:38:15;;;;;;;8.70;3.70;;;;;3.50;97448.40;;;;110801;1251;41267;-65
2022/03/08 16:40:45;;;;;;;8.00;3.20;;;;;3.50;97456.80;;;;110801;1250;41153;-66
2022/03/08 16:43:15;;;;;;;9.20;4.20;;;;;3.50;97451.80;;;;110755;1251;41172;-65
2022/03/08 16:45:44;;;;;;;8.80;3.50;;;;;3.20;97451.20;;;;110703;1251;41155;-65
2022/03/08 16:48:14;;;;;;;8.50;3.60;;;;;3.20;97450.00;;;;110729;1250;41255;-65
2022/03/08 16:50:43;;;;;;;8.60;3.40;;;;;3.10;97455.20;;;;110909;1250;41611;-65
2022/03/08 16:53:12;;;;;;;9.80;3.40;;;;;3.10;97449.60;;;;110637;1251;41302;-65
2022/03/08 16:55:42;;;;;;;8.10;3.20;;;;;3.10;97445.20;;;;110773;1251;41149;-66
2022/03/08 16:58:11;;;;;;;8.30;3.50;;;;;3.10;97447.60;;;;110730;1251;41208;-66
2022/03/08 17:00:40;;;;;;;9.60;3.30;;;;;3.02;97447.20;;;;110659;1251;41156;-68
2022/03/08 17:03:12;;;;;;;10.00;3.50;;;;;3.00;97450.00;;;;110798;1251;42537;-65
2022/03/08 17:05:41;;;;;;;9.30;3.80;;;;;3.00;97450.60;;;;110742;1251;41288;-66
2022/03/08 17:08:13;;;;;;;9.70;3.50;;;;;3.00;97452.00;;;;110783;1251;41139;-65
2022/03/08 17:10:45;;;;;;;9.20;3.60;;;;;2.92;97452.00;;;;110832;1251;41360;-65
2022/03/08 17:13:16;;;;;;;9.70;3.70;;;;;2.90;97461.20;;;;110879;1250;41134;-65
2022/03/08 17:15:46;;;;;;;8.20;3.30;;;;;2.80;97456.80;;;;110768;1250;41615;-66
2022/03/08 17:18:16;;;;;;;8.50;3.60;;;;;2.80;97460.80;;;;110725;1253;41121;-65
2022/03/08 17:20:45;;;;;;;8.30;3.50;;;;;2.70;97464.40;;;;110633;1252;41182;-65
2022/03/08 17:23:17;;;;;;;8.20;3.70;;;;;2.60;97468.60;;;;110863;1250;41441;-64
2022/03/08 17:25:55;;;;;;;9.20;4.00;;;;;2.60;97465.80;;;;110782;1251;41505;-66
2022/03/08 17:28:26;;;;;;;9.70;3.90;;;;;2.50;97469.00;;;;110804;1251;42302;-66
2022/03/08 17:30:55;;;;;;;10.60;4.10;;;;;2.50;97468.00;;;;110658;1251;41143;-68
2022/03/08 17:33:26;;;;;;;11.00;4.40;;;;;2.40;97468.80;;;;110873;1250;41156;-69
2022/03/08 17:35:56;;;;;;;11.70;4.20;;;;;2.40;97469.80;;;;110870;1250;41449;-65
2022/03/08 17:38:26;;;;;;;9.60;4.10;;;;;2.30;97475.40;;;;110965;1250;41163;-66
2022/03/08 17:40:55;;;;;;;8.80;3.90;;;;;2.24;97475.60;;;;110618;1251;41252;-65
2022/03/08 17:43:40;;;;;;;11.50;4.60;;;;;2.18;97476.60;;;;110743;1250;41145;-66
2022/03/08 17:46:12;;;;;;;9.60;4.30;;;;;2.10;97474.20;;;;110768;1250;41796;-66
2022/03/08 17:48:42;;;;;;;9.80;4.20;;;;;2.02;97480.40;;;;110601;1250;41344;-66
2022/03/08 17:51:18;;;;;;;11.60;4.90;;;;;1.96;97485.40;;;;110685;1251;42038;-65
2022/03/08 17:53:48;;;;;;;10.30;4.20;;;;;1.90;97490.80;;;;110949;1250;41153;-64
2022/03/08 17:56:17;;;;;;;10.60;4.40;;;;;1.88;97494.00;;;;110567;1251;41258;-66
2022/03/08 17:58:47;;;;;;;17.60;7.70;;;;;1.80;97489.80;;;;110953;1250;41155;-65
2022/03/08 18:01:18;;;;;;;28.70;13.70;;;;;1.80;97494.60;;;;110745;1251;41272;-66
2022/03/08 18:03:50;;;;;;;25.60;11.50;;;;;1.78;97496.40;;;;110870;1250;41317;-66
2022/03/08 18:06:19;;;;;;;22.30;9.70;;;;;1.70;97496.40;;;;110754;1250;41149;-67
2022/03/08 18:08:48;;;;;;;20.00;9.10;;;;;1.62;97494.20;;;;110796;1250;41262;-65
2022/03/08 18:11:18;;;;;;;19.40;8.30;;;;;1.60;97493.00;;;;110996;1250;42372;-65
2022/03/08 18:13:48;;;;;;;20.50;9.70;;;;;1.54;97494.80;;;;110612;1251;41206;-66
2022/03/08 18:16:17;;;;;;;28.10;12.10;;;;;1.50;97495.80;;;;110750;1251;41393;-63
2022/03/08 18:18:46;;;;;;;18.80;9.60;;;;;1.40;97494.40;;;;110624;1250;41145;-65
2022/03/08 18:21:16;;;;;;;19.10;8.70;;;;;1.40;97489.00;;;;110605;1251;41296;-64
2022/03/08 18:23:45;;;;;;;19.60;8.80;;;;;1.40;97492.80;;;;110710;1250;41455;-66
2022/03/08 18:26:15;;;;;;;24.70;10.10;;;;;1.38;97487.80;;;;110730;1251;41612;-65
2022/03/08 18:28:44;;;;;;;23.10;10.30;;;;;1.40;97495.80;;;;110949;1250;41387;-63
2022/03/08 18:31:14;;;;;;;21.20;9.50;;;;;1.30;97492.40;;;;110792;1251;41145;-67
2022/03/08 18:33:44;;;;;;;21.50;10.50;;;;;1.30;97489.00;;;;110556;1251;41472;-65
2022/03/08 18:36:14;;;;;;;18.10;8.90;;;;;1.20;97492.40;;;;110888;1250;42411;-65
2022/03/08 18:38:43;;;;;;;18.00;8.40;;;;;1.10;97494.60;;;;110780;1250;42563;-65
2022/03/08 18:41:13;;;;;;;22.00;9.40;;;;;1.00;97495.80;;;;110821;1250;41528;-65
2022/03/08 18:43:43;;;;;;;17.60;8.20;;;;;1.00;97492.00;;;;110815;1251;41729;-65
2022/03/08 18:46:12;;;;;;;17.60;7.90;;;;;0.90;97489.60;;;;110744;1250;41303;-65
2022/03/08 18:48:41;;;;;;;17.10;8.00;;;;;0.80;97494.80;;;;110750;1251;41159;-67
2022/03/08 18:51:10;;;;;;;17.40;7.40;;;;;0.80;97495.00;;;;110957;1250;41962;-65
2022/03/08 18:53:40;;;;;;;18.00;8.90;;;;;0.70;97495.20;;;;110930;1250;41252;-65
2022/03/08 18:56:09;;;;;;;32.10;13.50;;;;;0.70;97496.60;;;;110635;1250;41189;-65
2022/03/08 18:58:39;;;;;;;33.90;11.50;;;;;0.60;97502.40;;;;110791;1250;41211;-64
2022/03/08 19:01:08;;;;;;;20.30;9.70;;;;;0.60;97498.60;;;;110961;1249;41687;-65
2022/03/08 19:03:38;;;;;;;18.10;8.50;;;;;0.50;97497.00;;;;110988;1250;42189;-65
2022/03/08 19:06:08;;;;;;;21.00;8.20;;;;;0.50;97497.80;;;;110641;1252;41178;-64
2022/03/08 19:08:38;;;;;;;16.80;8.00;;;;;0.40;97496.20;;;;110744;1251;41160;-66
2022/03/08 19:11:08;;;;;;;16.50;7.90;;;;;0.40;97502.40;;;;110641;1251;41577;-66
2022/03/08 19:13:38;;;;;;;19.60;9.90;;;;;0.30;97502.00;;;;110896;1250;41251;-65
2022/03/08 19:16:11;;;;;;;26.30;8.80;;;;;0.30;97500.00;;;;110889;1250;41441;-64
2022/03/08 19:18:44;;;;;;;18.70;8.60;;;;;0.22;97494.80;;;;110690;1249;41944;-65
2022/03/08 19:21:18;;;;;;;24.60;11.70;;;;;0.20;97490.60;;;;110869;1250;41236;-64
2022/03/08 19:23:58;;;;;;;29.00;15.10;;;;;0.20;97492.20;;;;110810;1251;41143;-62
2022/03/08 19:26:27;;;;;;;31.10;15.70;;;;;0.10;97495.00;;;;110719;1251;41274;-65
2022/03/08 19:28:56;;;;;;;33.20;15.10;;;;;0.00;97490.80;;;;110721;1251;42565;-65
2022/03/08 19:31:25;;;;;;;27.90;14.30;;;;;-0.10;97497.60;;;;110715;1253;41928;-64
2022/03/08 19:33:55;;;;;;;24.90;12.60;;;;;-0.20;97496.60;;;;110810;1250;41254;-66
2022/03/08 19:36:24;;;;;;;24.90;12.30;;;;;-0.20;97490.80;;;;110672;1253;41256;-65
2022/03/08 19:38:55;;;;;;;23.20;11.20;;;;;-0.30;97493.60;;;;110894;1250;41275;-65
2022/03/08 19:41:24;;;;;;;25.70;11.30;;;;;-0.30;97492.40;;;;110729;1251;41573;-65
2022/03/08 19:43:53;;;;;;;26.00;11.60;;;;;-0.40;97489.20;;;;110656;1250;41131;-65
2022/03/08 19:46:25;;;;;;;20.80;10.90;;;;;-0.40;97493.20;;;;110647;1250;41141;-65
2022/03/08 19:48:54;;;;;;;23.90;11.60;;;;;-0.40;97493.40;;;;110639;1251;41173;-65
2022/03/08 19:51:23;;;;;;;23.10;10.40;;;;;-0.50;97487.40;;;;110783;1251;42003;-66
2022/03/08 19:53:53;;;;;;;22.80;11.30;;;;;-0.50;97496.40;;;;110592;1253;41412;-66
2022/03/08 19:56:24;;;;;;;21.70;10.30;;;;;-0.60;97489.60;;;;110740;1251;41137;-64
2022/03/08 19:58:54;;;;;;;20.80;10.00;;;;;-0.60;97491.40;;;;110750;1251;41155;-64
2022/03/08 20:01:43;;;;;;;21.00;9.10;;;;;-0.60;97494.00;;;;110800;1250;41723;-66
2022/03/08 20:04:12;;;;;;;19.40;10.10;;;;;-0.70;97490.80;;;;110983;1250;41498;-65
2022/03/08 20:06:42;;;;;;;17.60;8.80;;;;;-0.70;97488.00;;;;110996;1249;41161;-65
2022/03/08 20:09:11;;;;;;;22.90;9.80;;;;;-0.70;97486.80;;;;110787;1251;41642;-65
2022/03/08 20:11:40;;;;;;;23.20;10.50;;;;;-0.70;97476.80;;;;110730;1251;41333;-64
2022/03/08 20:14:09;;;;;;;21.80;10.50;;;;;-0.76;97469.80;;;;110728;1250;42408;-65
2022/03/08 20:16:38;;;;;;;22.80;11.30;;;;;-0.78;97474.00;;;;110917;1250;41173;-65
2022/03/08 20:19:07;;;;;;;32.50;15.60;;;;;-0.80;97475.40;;;;110983;1250;41156;-65
2022/03/08 20:21:36;;;;;;;33.20;14.70;;;;;-0.80;97469.80;;;;110750;1251;42384;-65
2022/03/08 20:24:07;;;;;;;29.90;14.10;;;;;-0.82;97472.40;;;;110892;1249;42657;-65
2022/03/08 20:26:49;;;;;;;25.10;13.50;;;;;-0.88;97475.00;;;;110916;1249;41808;-65
2022/03/08 20:29:19;;;;;;;27.80;13.00;;;;;-0.90;97474.40;;;;110863;1249;41152;-66
2022/03/08 20:31:53;;;;;;;24.80;12.20;;;;;-0.90;97470.00;;;;110884;1250;41607;-64
2022/03/08 20:34:28;;;;;;;23.20;11.60;;;;;-1.00;97466.00;;;;110640;1251;41145;-64
2022/03/08 20:36:58;;;;;;;24.20;12.40;;;;;-1.00;97462.40;;;;110800;1250;41914;-65
2022/03/08 20:39:28;;;;;;;22.30;11.10;;;;;-1.00;97463.00;;;;110878;1250;41254;-64
2022/03/08 20:41:57;;;;;;;24.60;11.90;;;;;-1.06;97464.20;;;;110830;1250;41157;-64
2022/03/08 20:44:27;;;;;;;24.70;11.80;;;;;-1.10;97462.00;;;;110854;1250;41274;-65
2022/03/08 20:46:57;;;;;;;24.30;11.60;;;;;-1.10;97463.40;;;;110615;1251;41508;-65
2022/03/08 20:49:27;;;;;;;27.70;13.30;;;;;-1.12;97461.60;;;;110854;1250;41272;-65
2022/03/08 20:51:57;;;;;;;24.20;12.00;;;;;-1.20;97462.60;;;;110820;1251;41330;-65
2022/03/08 20:54:26;;;;;;;23.30;11.70;;;;;-1.20;97466.60;;;;110646;1251;41815;-66
2022/03/08 20:56:55;;;;;;;24.20;12.00;;;;;-1.20;97470.60;;;;110805;1251;41264;-66
2022/03/08 20:59:26;;;;;;;22.30;11.40;;;;;-1.20;97468.20;;;;110848;1248;41455;-64
2022/03/08 21:01:56;;;;;;;24.20;10.20;;;;;-1.20;97465.00;;;;110783;1251;41127;-65
2022/03/08 21:04:25;;;;;;;18.90;9.30;;;;;-1.20;97462.00;;;;110746;1251;41161;-66
2022/03/08 21:06:55;;;;;;;20.80;9.90;;;;;-1.20;97462.20;;;;110645;1251;41210;-65
2022/03/08 21:09:26;;;;;;;21.60;10.10;;;;;-1.20;97457.80;;;;110610;1253;41193;-66
2022/03/08 21:11:56;;;;;;;20.80;10.10;;;;;-1.22;97460.80;;;;110915;1250;41176;-65